sensor_id;sensor_type;location;lat;lon;timestamp;pressure;altitude;pressure_sealevel;temperature;humidity
61484;BME280;47349;55.640;37.692;2023-02-16T00:01:33;100147.38;;;-4.80;89.35
61484;BME280;47349;55.640;37.692;2023-02-16T00:04:01;100143.66;;;-4.75;88.52
61484;BME280;47349;55.640;37.692;2023-02-16T00:06:50;100151.25;;;-4.69;87.73
61484;BME280;47349;55.640;37.692;2023-02-16T00:09:38;100149.81;;;-4.76;88.10
61484;BME280;47349;55.640;37.692;2023-02-16T00:12:07;100141.19;;;-4.78;89.17
61484;BME280;47349;55.640;37.692;2023-02-16T00:15:00;100148.50;;;-4.86;89.26
61484;BME280;47349;55.640;37.692;2023-02-16T00:17:27;100146.66;;;-4.84;89.94
61484;BME280;47349;55.640;37.692;2023-02-16T00:19:54;100146.53;;;-4.81;90.06
61484;BME280;47349;55.640;37.692;2023-02-16T00:22:21;100155.31;;;-4.82;90.62
61484;BME280;47349;55.640;37.692;2023-02-16T00:24:48;100138.19;;;-4.89;90.14
61484;BME280;47349;55.640;37.692;2023-02-16T00:27:15;100144.97;;;-4.85;89.74
61484;BME280;47349;55.640;37.692;2023-02-16T00:29:44;100142.56;;;-4.89;89.25
61484;BME280;47349;55.640;37.692;2023-02-16T00:32:11;100136.47;;;-4.90;89.58
61484;BME280;47349;55.640;37.692;2023-02-16T00:34:41;100148.63;;;-4.89;89.59
61484;BME280;47349;55.640;37.692;2023-02-16T00:37:10;100141.78;;;-4.92;88.49
61484;BME280;47349;55.640;37.692;2023-02-16T00:39:38;100148.78;;;-4.92;88.80
61484;BME280;47349;55.640;37.692;2023-02-16T00:42:12;100143.69;;;-4.95;88.51
61484;BME280;47349;55.640;37.692;2023-02-16T00:44:46;100140.28;;;-4.97;88.21
61484;BME280;47349;55.640;37.692;2023-02-16T00:49:47;100145.13;;;-5.08;87.94
61484;BME280;47349;55.640;37.692;2023-02-16T00:52:23;100139.25;;;-5.13;87.84
61484;BME280;47349;55.640;37.692;2023-02-16T00:54:52;100139.25;;;-5.13;88.66
61484;BME280;47349;55.640;37.692;2023-02-16T00:57:19;100137.16;;;-5.05;88.05
61484;BME280;47349;55.640;37.692;2023-02-16T00:59:46;100130.81;;;-5.00;88.10
61484;BME280;47349;55.640;37.692;2023-02-16T01:02:14;100130.81;;;-5.00;87.52
61484;BME280;47349;55.640;37.692;2023-02-16T01:04:41;100132.66;;;-5.02;87.15
61484;BME280;47349;55.640;37.692;2023-02-16T01:07:12;100139.38;;;-4.96;87.07
61484;BME280;47349;55.640;37.692;2023-02-16T01:10:04;100126.44;;;-4.99;87.13
61484;BME280;47349;55.640;37.692;2023-02-16T01:12:49;100140.69;;;-5.06;88.14
61484;BME280;47349;55.640;37.692;2023-02-16T01:15:18;100133.78;;;-5.07;88.23
61484;BME280;47349;55.640;37.692;2023-02-16T01:17:47;100135.50;;;-5.08;88.57
61484;BME280;47349;55.640;37.692;2023-02-16T01:20:15;100134.81;;;-5.11;89.04
61484;BME280;47349;55.640;37.692;2023-02-16T01:22:42;100135.59;;;-5.09;90.19
61484;BME280;47349;55.640;37.692;2023-02-16T01:25:09;100146.19;;;-5.12;89.95
61484;BME280;47349;55.640;37.692;2023-02-16T01:27:37;100141.06;;;-5.15;90.23
61484;BME280;47349;55.640;37.692;2023-02-16T01:30:05;100148.06;;;-5.16;89.36
61484;BME280;47349;55.640;37.692;2023-02-16T01:32:33;100147.53;;;-5.24;89.91
61484;BME280;47349;55.640;37.692;2023-02-16T01:35:00;100146.81;;;-5.28;90.48
61484;BME280;47349;55.640;37.692;2023-02-16T01:37:28;100141.47;;;-5.25;90.19
61484;BME280;47349;55.640;37.692;2023-02-16T01:39:55;100139.50;;;-5.20;90.20
61484;BME280;47349;55.640;37.692;2023-02-16T01:42:43;100131.75;;;-5.21;91.00
61484;BME280;47349;55.640;37.692;2023-02-16T01:45:12;100140.16;;;-5.14;90.94
61484;BME280;47349;55.640;37.692;2023-02-16T01:50:17;100150.06;;;-5.23;89.80
61484;BME280;47349;55.640;37.692;2023-02-16T01:52:53;100148.91;;;-5.15;90.58
61484;BME280;47349;55.640;37.692;2023-02-16T01:57:55;100155.19;;;-5.20;91.41
61484;BME280;47349;55.640;37.692;2023-02-16T02:02:59;100161.72;;;-5.30;92.48
61484;BME280;47349;55.640;37.692;2023-02-16T02:05:46;100157.22;;;-5.26;92.28
61484;BME280;47349;55.640;37.692;2023-02-16T02:08:50;100158.19;;;-5.29;92.02
61484;BME280;47349;55.640;37.692;2023-02-16T02:13:44;100153.88;;;-5.09;92.41
61484;BME280;47349;55.640;37.692;2023-02-16T02:16:18;100156.63;;;-5.12;92.71
61484;BME280;47349;55.640;37.692;2023-02-16T02:18:46;100153.50;;;-5.21;91.78
61484;BME280;47349;55.640;37.692;2023-02-16T02:29:07;100152.06;;;-5.07;91.40
61484;BME280;47349;55.640;37.692;2023-02-16T02:34:20;100151.63;;;-4.98;91.53
61484;BME280;47349;55.640;37.692;2023-02-16T02:37:04;100150.09;;;-5.02;91.18
61484;BME280;47349;55.640;37.692;2023-02-16T02:39:42;100148.13;;;-5.18;92.60
61484;BME280;47349;55.640;37.692;2023-02-16T02:42:13;100150.59;;;-5.14;93.75
61484;BME280;47349;55.640;37.692;2023-02-16T02:44:51;100150.88;;;-5.21;93.77
61484;BME280;47349;55.640;37.692;2023-02-16T02:47:20;100142.19;;;-5.21;94.62
61484;BME280;47349;55.640;37.692;2023-02-16T02:49:50;100149.56;;;-5.31;95.21
61484;BME280;47349;55.640;37.692;2023-02-16T02:52:18;100155.94;;;-5.38;95.18
61484;BME280;47349;55.640;37.692;2023-02-16T02:54:45;100143.53;;;-5.53;95.04
61484;BME280;47349;55.640;37.692;2023-02-16T02:57:42;100146.25;;;-5.56;95.63
61484;BME280;47349;55.640;37.692;2023-02-16T03:00:39;100147.19;;;-5.37;96.00
61484;BME280;47349;55.640;37.692;2023-02-16T03:08:26;100155.94;;;-5.38;96.78
61484;BME280;47349;55.640;37.692;2023-02-16T03:11:11;100152.38;;;-5.35;96.87
61484;BME280;47349;55.640;37.692;2023-02-16T03:16:26;100128.03;;;-5.36;97.07
61484;BME280;47349;55.640;37.692;2023-02-16T03:18:55;100153.34;;;-5.38;97.35
61484;BME280;47349;55.640;37.692;2023-02-16T03:21:41;100150.00;;;-5.42;97.44
61484;BME280;47349;55.640;37.692;2023-02-16T03:24:28;100145.75;;;-5.44;98.10
61484;BME280;47349;55.640;37.692;2023-02-16T03:27:16;100146.03;;;-5.50;98.06
61484;BME280;47349;55.640;37.692;2023-02-16T03:30:02;100139.16;;;-5.53;98.11
61484;BME280;47349;55.640;37.692;2023-02-16T03:32:30;100139.94;;;-5.51;98.10
61484;BME280;47349;55.640;37.692;2023-02-16T03:34:58;100139.16;;;-5.53;97.93
61484;BME280;47349;55.640;37.692;2023-02-16T03:37:25;100142.75;;;-5.55;97.38
61484;BME280;47349;55.640;37.692;2023-02-16T03:39:52;100138.22;;;-5.52;96.76
61484;BME280;47349;55.640;37.692;2023-02-16T03:42:38;100145.09;;;-5.49;96.86
61484;BME280;47349;55.640;37.692;2023-02-16T03:45:05;100144.91;;;-5.45;95.91
61484;BME280;47349;55.640;37.692;2023-02-16T03:47:33;100149.16;;;-5.42;96.36
61484;BME280;47349;55.640;37.692;2023-02-16T03:49:59;100138.66;;;-5.40;96.23
61484;BME280;47349;55.640;37.692;2023-02-16T03:52:28;100135.47;;;-5.27;96.86
61484;BME280;47349;55.640;37.692;2023-02-16T03:54:55;100132.31;;;-5.14;95.37
61484;BME280;47349;55.640;37.692;2023-02-16T03:57:22;100130.34;;;-5.09;94.25
61484;BME280;47349;55.640;37.692;2023-02-16T03:59:49;100135.72;;;-5.12;94.22
61484;BME280;47349;55.640;37.692;2023-02-16T04:02:18;100128.78;;;-5.13;94.44
61484;BME280;47349;55.640;37.692;2023-02-16T04:04:45;100136.16;;;-5.23;92.81
61484;BME280;47349;55.640;37.692;2023-02-16T04:07:12;100125.97;;;-5.29;93.67
61484;BME280;47349;55.640;37.692;2023-02-16T04:09:39;100123.56;;;-5.13;94.21
61484;BME280;47349;55.640;37.692;2023-02-16T04:12:08;100131.34;;;-5.12;92.65
61484;BME280;47349;55.640;37.692;2023-02-16T04:14:54;100131.56;;;-5.17;92.13
61484;BME280;47349;55.640;37.692;2023-02-16T04:17:21;100130.50;;;-5.12;92.65
61484;BME280;47349;55.640;37.692;2023-02-16T04:19:48;100128.78;;;-5.13;92.93
61484;BME280;47349;55.640;37.692;2023-02-16T04:22:15;100117.56;;;-5.15;92.38
61484;BME280;47349;55.640;37.692;2023-02-16T04:24:42;100126.44;;;-5.20;92.89
61484;BME280;47349;55.640;37.692;2023-02-16T04:27:09;100125.53;;;-5.19;93.00
61484;BME280;47349;55.640;37.692;2023-02-16T04:29:36;100121.59;;;-5.29;92.84
61484;BME280;47349;55.640;37.692;2023-02-16T04:32:03;100124.94;;;-5.25;92.69
61484;BME280;47349;55.640;37.692;2023-02-16T04:34:31;100131.13;;;-5.28;93.26
61484;BME280;47349;55.640;37.692;2023-02-16T04:36:58;100129.72;;;-5.35;92.68
61484;BME280;47349;55.640;37.692;2023-02-16T04:39:25;100124.41;;;-5.33;93.08
61484;BME280;47349;55.640;37.692;2023-02-16T04:42:02;100120.50;;;-5.44;93.67
61484;BME280;47349;55.640;37.692;2023-02-16T04:44:29;100121.34;;;-5.43;93.90
61484;BME280;47349;55.640;37.692;2023-02-16T04:46:56;100113.56;;;-5.45;93.88
61484;BME280;47349;55.640;37.692;2023-02-16T04:49:24;100111.44;;;-5.35;93.41
61484;BME280;47349;55.640;37.692;2023-02-16T04:51:51;100121.03;;;-5.35;93.14
61484;BME280;47349;55.640;37.692;2023-02-16T04:54:18;100125.25;;;-5.33;93.31
61484;BME280;47349;55.640;37.692;2023-02-16T04:56:46;100120.84;;;-5.31;92.93
61484;BME280;47349;55.640;37.692;2023-02-16T04:59:14;100109.72;;;-5.36;92.82
61484;BME280;47349;55.640;37.692;2023-02-16T05:01:41;100126.44;;;-5.40;93.14
61484;BME280;47349;55.640;37.692;2023-02-16T05:04:09;100133.63;;;-5.45;93.51
61484;BME280;47349;55.640;37.692;2023-02-16T05:06:37;100124.31;;;-5.52;94.63
61484;BME280;47349;55.640;37.692;2023-02-16T05:09:06;100133.34;;;-5.39;94.77
61484;BME280;47349;55.640;37.692;2023-02-16T05:11:33;100127.22;;;-5.38;95.15
61484;BME280;47349;55.640;37.692;2023-02-16T05:14:21;100130.09;;;-5.44;95.77
61484;BME280;47349;55.640;37.692;2023-02-16T05:17:11;100124.13;;;-5.48;96.10
61484;BME280;47349;55.640;37.692;2023-02-16T05:19:39;100132.97;;;-5.50;96.04
61484;BME280;47349;55.640;37.692;2023-02-16T05:22:09;100119.75;;;-5.47;96.57
61484;BME280;47349;55.640;37.692;2023-02-16T05:24:36;100135.31;;;-5.44;96.90
61484;BME280;47349;55.640;37.692;2023-02-16T05:27:06;100133.25;;;-5.36;95.80
61484;BME280;47349;55.640;37.692;2023-02-16T05:29:34;100132.31;;;-5.35;95.57
61484;BME280;47349;55.640;37.692;2023-02-16T05:32:01;100131.00;;;-5.25;95.24
61484;BME280;47349;55.640;37.692;2023-02-16T05:34:30;100125.59;;;-5.20;94.43
61484;BME280;47349;55.640;37.692;2023-02-16T05:36:57;100127.38;;;-5.21;94.44
61484;BME280;47349;55.640;37.692;2023-02-16T05:39:24;100132.97;;;-5.30;92.96
61484;BME280;47349;55.640;37.692;2023-02-16T05:41:51;100131.13;;;-5.28;93.50
61484;BME280;47349;55.640;37.692;2023-02-16T05:44:19;100137.81;;;-5.21;93.31
61484;BME280;47349;55.640;37.692;2023-02-16T05:46:46;100130.06;;;-5.22;93.85
61484;BME280;47349;55.640;37.692;2023-02-16T05:49:13;100130.16;;;-5.25;93.06
61484;BME280;47349;55.640;37.692;2023-02-16T05:51:41;100127.63;;;-5.27;93.02
61484;BME280;47349;55.640;37.692;2023-02-16T05:54:08;100123.09;;;-5.23;94.10
61484;BME280;47349;55.640;37.692;2023-02-16T05:56:36;100131.00;;;-5.25;92.70
61484;BME280;47349;55.640;37.692;2023-02-16T05:59:04;100130.91;;;-5.22;92.95
61484;BME280;47349;55.640;37.692;2023-02-16T06:01:31;100128.41;;;-5.25;92.70
61484;BME280;47349;55.640;37.692;2023-02-16T06:03:57;100132.59;;;-5.21;92.59
61484;BME280;47349;55.640;37.692;2023-02-16T06:06:25;100115.69;;;-5.12;92.58
61484;BME280;47349;55.640;37.692;2023-02-16T06:08:52;100135.47;;;-5.06;91.88
61484;BME280;47349;55.640;37.692;2023-02-16T06:11:19;100133.34;;;-4.98;90.91
61484;BME280;47349;55.640;37.692;2023-02-16T06:14:11;100133.50;;;-5.01;90.94
61484;BME280;47349;55.640;37.692;2023-02-16T06:16:39;100119.94;;;-4.91;91.26
61484;BME280;47349;55.640;37.692;2023-02-16T06:19:08;100127.28;;;-4.99;90.66
61484;BME280;47349;55.640;37.692;2023-02-16T06:21:50;100124.16;;;-5.07;92.23
61484;BME280;47349;55.640;37.692;2023-02-16T06:24:24;100127.81;;;-5.11;91.37
61484;BME280;47349;55.640;37.692;2023-02-16T06:26:53;100126.31;;;-5.17;91.06
61484;BME280;47349;55.640;37.692;2023-02-16T06:29:37;100121.56;;;-5.07;91.48
61484;BME280;47349;55.640;37.692;2023-02-16T06:32:05;100128.13;;;-4.98;90.77
61484;BME280;47349;55.640;37.692;2023-02-16T06:34:33;100124.16;;;-5.07;91.51
61484;BME280;47349;55.640;37.692;2023-02-16T06:37:00;100132.91;;;-5.08;91.44
61484;BME280;47349;55.640;37.692;2023-02-16T06:39:29;100122.78;;;-4.95;91.89
61484;BME280;47349;55.640;37.692;2023-02-16T06:41:57;100124.34;;;-4.91;91.45
61484;BME280;47349;55.640;37.692;2023-02-16T06:44:24;100129.00;;;-4.98;90.88
61484;BME280;47349;55.640;37.692;2023-02-16T06:46:52;100129.38;;;-5.07;90.78
61484;BME280;47349;55.640;37.692;2023-02-16T06:49:19;100120.34;;;-5.00;90.52
61484;BME280;47349;55.640;37.692;2023-02-16T06:51:48;100123.78;;;-4.98;90.14
61484;BME280;47349;55.640;37.692;2023-02-16T06:54:15;100116.16;;;-4.83;90.64
61484;BME280;47349;55.640;37.692;2023-02-16T06:56:43;100125.94;;;-4.68;89.86
61484;BME280;47349;55.640;37.692;2023-02-16T06:59:10;100124.66;;;-4.59;90.03
61484;BME280;47349;55.640;37.692;2023-02-16T07:01:38;100122.53;;;-4.51;89.34
61484;BME280;47349;55.640;37.692;2023-02-16T07:04:05;100118.88;;;-4.47;89.50
61484;BME280;47349;55.640;37.692;2023-02-16T07:06:32;100127.66;;;-4.48;88.77
61484;BME280;47349;55.640;37.692;2023-02-16T07:09:01;100117.03;;;-4.64;88.62
61484;BME280;47349;55.640;37.692;2023-02-16T07:11:28;100128.13;;;-4.78;90.29
61484;BME280;47349;55.640;37.692;2023-02-16T07:14:09;100117.38;;;-4.72;90.99
61484;BME280;47349;55.640;37.692;2023-02-16T07:16:37;100123.38;;;-4.70;90.17
61484;BME280;47349;55.640;37.692;2023-02-16T07:19:04;100108.13;;;-4.60;89.43
61484;BME280;47349;55.640;37.692;2023-02-16T07:21:31;100106.56;;;-4.45;87.72
61484;BME280;47349;55.640;37.692;2023-02-16T07:23:58;100107.06;;;-4.37;86.36
61484;BME280;47349;55.640;37.692;2023-02-16T07:26:25;100108.53;;;-4.31;86.47
61484;BME280;47349;55.640;37.692;2023-02-16T07:28:52;100107.88;;;-4.35;85.60
61484;BME280;47349;55.640;37.692;2023-02-16T07:31:19;100106.78;;;-4.31;85.49
61484;BME280;47349;55.640;37.692;2023-02-16T07:33:47;100111.59;;;-4.22;84.89
61484;BME280;47349;55.640;37.692;2023-02-16T07:36:14;100103.47;;;-4.16;84.54
61484;BME280;47349;55.640;37.692;2023-02-16T07:38:41;100105.16;;;-4.15;84.86
61484;BME280;47349;55.640;37.692;2023-02-16T07:41:08;100102.66;;;-4.18;83.91
61484;BME280;47349;55.640;37.692;2023-02-16T07:43:36;100110.53;;;-4.18;85.13
61484;BME280;47349;55.640;37.692;2023-02-16T07:46:04;100104.44;;;-4.37;85.37
61484;BME280;47349;55.640;37.692;2023-02-16T07:48:31;100108.06;;;-4.40;86.24
61484;BME280;47349;55.640;37.692;2023-02-16T07:50:58;100105.41;;;-4.21;86.05
61484;BME280;47349;55.640;37.692;2023-02-16T07:53:25;100119.00;;;-4.13;85.42
61484;BME280;47349;55.640;37.692;2023-02-16T07:55:53;100112.38;;;-4.20;85.06
61484;BME280;47349;55.640;37.692;2023-02-16T07:58:20;100106.63;;;-4.28;84.86
61484;BME280;47349;55.640;37.692;2023-02-16T08:01:04;100102.88;;;-4.22;85.17
61484;BME280;47349;55.640;37.692;2023-02-16T08:03:32;100102.03;;;-4.04;85.72
61484;BME280;47349;55.640;37.692;2023-02-16T08:05:59;100102.34;;;-3.93;85.00
61484;BME280;47349;55.640;37.692;2023-02-16T08:08:27;100097.22;;;-3.77;84.21
61484;BME280;47349;55.640;37.692;2023-02-16T08:10:54;100098.84;;;-3.74;83.19
61484;BME280;47349;55.640;37.692;2023-02-16T08:13:35;100099.09;;;-3.62;82.79
61484;BME280;47349;55.640;37.692;2023-02-16T08:16:05;100095.84;;;-3.49;82.17
61484;BME280;47349;55.640;37.692;2023-02-16T08:18:33;100094.63;;;-3.59;82.02
61484;BME280;47349;55.640;37.692;2023-02-16T08:21:08;100100.16;;;-3.48;82.05
61484;BME280;47349;55.640;37.692;2023-02-16T08:23:40;100103.25;;;-3.40;81.28
61484;BME280;47349;55.640;37.692;2023-02-16T08:26:10;100107.63;;;-3.41;81.36
61484;BME280;47349;55.640;37.692;2023-02-16T08:28:38;100102.84;;;-3.50;81.51
61484;BME280;47349;55.640;37.692;2023-02-16T08:31:12;100110.00;;;-3.53;81.39
61484;BME280;47349;55.640;37.692;2023-02-16T08:33:40;100091.16;;;-3.60;81.25
61484;BME280;47349;55.640;37.692;2023-02-16T08:36:17;100095.69;;;-3.64;81.60
61484;BME280;47349;55.640;37.692;2023-02-16T08:38:45;100104.78;;;-3.53;81.50
61484;BME280;47349;55.640;37.692;2023-02-16T08:41:16;100098.06;;;-3.59;81.17
61484;BME280;47349;55.640;37.692;2023-02-16T08:43:43;100103.47;;;-3.62;81.66
61484;BME280;47349;55.640;37.692;2023-02-16T08:46:11;100101.53;;;-3.58;81.98
61484;BME280;47349;55.640;37.692;2023-02-16T08:48:38;100097.63;;;-3.50;81.18
61484;BME280;47349;55.640;37.692;2023-02-16T08:51:11;100094.53;;;-3.58;80.91
61484;BME280;47349;55.640;37.692;2023-02-16T08:53:38;100089.66;;;-3.83;81.42
61484;BME280;47349;55.640;37.692;2023-02-16T08:56:06;100101.69;;;-3.79;81.87
61484;BME280;47349;55.640;37.692;2023-02-16T08:58:35;100088.75;;;-3.65;82.34
61484;BME280;47349;55.640;37.692;2023-02-16T09:01:06;100085.53;;;-3.52;81.69
61484;BME280;47349;55.640;37.692;2023-02-16T09:03:34;100084.81;;;-3.39;80.96
61484;BME280;47349;55.640;37.692;2023-02-16T09:06:02;100090.63;;;-3.32;80.24
61484;BME280;47349;55.640;37.692;2023-02-16T09:08:31;100088.59;;;-3.27;79.74
61484;BME280;47349;55.640;37.692;2023-02-16T09:11:01;100086.81;;;-3.26;79.73
61484;BME280;47349;55.640;37.692;2023-02-16T09:13:29;100087.66;;;-3.08;79.05
61484;BME280;47349;55.640;37.692;2023-02-16T09:16:02;100091.56;;;-3.00;79.09
61484;BME280;47349;55.640;37.692;2023-02-16T09:18:30;100081.75;;;-2.96;78.81
61484;BME280;47349;55.640;37.692;2023-02-16T09:21:05;100080.31;;;-3.19;78.50
61484;BME280;47349;55.640;37.692;2023-02-16T09:23:33;100072.06;;;-3.12;78.56
61484;BME280;47349;55.640;37.692;2023-02-16T09:26:01;100080.06;;;-2.97;77.28
61484;BME280;47349;55.640;37.692;2023-02-16T09:28:29;100077.72;;;-2.86;76.99
61484;BME280;47349;55.640;37.692;2023-02-16T09:30:56;100087.13;;;-2.82;77.04
61484;BME280;47349;55.640;37.692;2023-02-16T09:33:24;100082.47;;;-2.77;76.22
61484;BME280;47349;55.640;37.692;2023-02-16T09:35:52;100092.09;;;-2.93;75.16
61484;BME280;47349;55.640;37.692;2023-02-16T09:38:19;100079.25;;;-2.82;75.77
61484;BME280;47349;55.640;37.692;2023-02-16T09:40:47;100075.53;;;-3.11;75.99
61484;BME280;47349;55.640;37.692;2023-02-16T09:45:46;100071.94;;;-3.26;77.92
61484;BME280;47349;55.640;37.692;2023-02-16T09:48:36;100076.97;;;-3.56;77.42
61484;BME280;47349;55.640;37.692;2023-02-16T09:51:05;100060.63;;;-3.44;77.42
61484;BME280;47349;55.640;37.692;2023-02-16T09:53:35;100065.16;;;-3.30;76.72
61484;BME280;47349;55.640;37.692;2023-02-16T09:56:11;100064.56;;;-3.35;75.97
61484;BME280;47349;55.640;37.692;2023-02-16T09:58:52;100068.47;;;-3.26;75.15
61484;BME280;47349;55.640;37.692;2023-02-16T10:01:31;100074.41;;;-3.23;75.02
61484;BME280;47349;55.640;37.692;2023-02-16T10:04:10;100078.03;;;-3.25;74.83
61484;BME280;47349;55.640;37.692;2023-02-16T10:09:13;100062.03;;;-3.37;73.77
61484;BME280;47349;55.640;37.692;2023-02-16T10:17:18;100061.69;;;-3.30;73.38
61484;BME280;47349;55.640;37.692;2023-02-16T10:19:54;100069.56;;;-3.30;72.66
61484;BME280;47349;55.640;37.692;2023-02-16T10:22:30;100063.00;;;-3.39;71.57
61484;BME280;47349;55.640;37.692;2023-02-16T10:25:03;100063.31;;;-3.45;71.89
61484;BME280;47349;55.640;37.692;2023-02-16T10:27:41;100065.56;;;-3.38;72.54
61484;BME280;47349;55.640;37.692;2023-02-16T10:30:13;100057.16;;;-3.27;73.00
61484;BME280;47349;55.640;37.692;2023-02-16T10:33:00;100057.16;;;-3.27;72.37
61484;BME280;47349;55.640;37.692;2023-02-16T10:35:47;100055.47;;;-3.28;72.47
61484;BME280;47349;55.640;37.692;2023-02-16T10:38:26;100048.50;;;-3.29;72.76
61484;BME280;47349;55.640;37.692;2023-02-16T10:41:06;100061.19;;;-3.37;72.66
61484;BME280;47349;55.640;37.692;2023-02-16T10:46:16;100053.34;;;-3.21;73.18
61484;BME280;47349;55.640;37.692;2023-02-16T10:48:46;100050.22;;;-3.28;70.42
61484;BME280;47349;55.640;37.692;2023-02-16T10:51:15;100046.72;;;-3.11;70.32
61484;BME280;47349;55.640;37.692;2023-02-16T10:53:58;100051.22;;;-2.97;68.99
61484;BME280;47349;55.640;37.692;2023-02-16T11:01:58;100045.16;;;-3.15;70.33
61484;BME280;47349;55.640;37.692;2023-02-16T11:07:03;100053.13;;;-3.17;70.72
61484;BME280;47349;55.640;37.692;2023-02-16T11:09:31;100043.38;;;-3.15;71.36
61484;BME280;47349;55.640;37.692;2023-02-16T11:11:59;100040.84;;;-3.16;71.24
61484;BME280;47349;55.640;37.692;2023-02-16T11:14:28;100040.28;;;-3.05;70.69
61484;BME280;47349;55.640;37.692;2023-02-16T11:17:06;100045.22;;;-2.99;71.26
61484;BME280;47349;55.640;37.692;2023-02-16T11:19:40;100046.78;;;-3.13;70.74
61484;BME280;47349;55.640;37.692;2023-02-16T11:22:30;100049.41;;;-3.13;70.49
61484;BME280;47349;55.640;37.692;2023-02-16T11:27:50;100027.28;;;-2.91;69.34
61484;BME280;47349;55.640;37.692;2023-02-16T11:30:21;100041.81;;;-3.01;69.74
61484;BME280;47349;55.640;37.692;2023-02-16T11:32:52;100031.53;;;-3.04;68.95
61484;BME280;47349;55.640;37.692;2023-02-16T11:35:21;100041.28;;;-3.24;68.75
61484;BME280;47349;55.640;37.692;2023-02-16T11:37:48;100043.59;;;-3.35;69.36
61484;BME280;47349;55.640;37.692;2023-02-16T11:42:46;100040.63;;;-3.29;69.16
61484;BME280;47349;55.640;37.692;2023-02-16T11:45:22;100036.50;;;-3.33;68.56
61484;BME280;47349;55.640;37.692;2023-02-16T11:48:07;100034.28;;;-3.58;68.83
61484;BME280;47349;55.640;37.692;2023-02-16T11:50:39;100043.00;;;-3.75;70.99
61484;BME280;47349;55.640;37.692;2023-02-16T11:53:22;100035.28;;;-3.60;70.69
61484;BME280;47349;55.640;37.692;2023-02-16T11:55:50;100031.81;;;-3.61;71.78
61484;BME280;47349;55.640;37.692;2023-02-16T11:58:37;100028.03;;;-3.55;69.81
61484;BME280;47349;55.640;37.692;2023-02-16T12:09:06;100028.38;;;-3.62;69.54
61484;BME280;47349;55.640;37.692;2023-02-16T12:11:45;100015.63;;;-3.52;68.83
61484;BME280;47349;55.640;37.692;2023-02-16T12:22:14;100032.53;;;-3.57;68.53
61484;BME280;47349;55.640;37.692;2023-02-16T12:24:47;100025.34;;;-3.54;68.35
61484;BME280;47349;55.640;37.692;2023-02-16T12:27:21;100031.75;;;-3.59;67.91
61484;BME280;47349;55.640;37.692;2023-02-16T12:29:59;100029.44;;;-3.66;67.38
61484;BME280;47349;55.640;37.692;2023-02-16T12:45:19;100034.84;;;-4.22;67.55
61484;BME280;47349;55.640;37.692;2023-02-16T12:47:54;100036.84;;;-4.27;67.65
61484;BME280;47349;55.640;37.692;2023-02-16T12:50:29;100040.47;;;-4.30;67.89
61484;BME280;47349;55.640;37.692;2023-02-16T12:56:00;100039.72;;;-3.97;68.11
61484;BME280;47349;55.640;37.692;2023-02-16T12:58:48;100039.91;;;-4.00;66.61
61484;BME280;47349;55.640;37.692;2023-02-16T13:01:20;100043.41;;;-4.01;67.03
61484;BME280;47349;55.640;37.692;2023-02-16T13:03:57;100043.59;;;-3.87;66.34
61484;BME280;47349;55.640;37.692;2023-02-16T13:11:35;100032.34;;;-3.37;64.80
61484;BME280;47349;55.640;37.692;2023-02-16T13:14:05;100039.56;;;-3.25;65.04
61484;BME280;47349;55.640;37.692;2023-02-16T13:19:13;100043.81;;;-3.22;64.95
61484;BME280;47349;55.640;37.692;2023-02-16T13:44:53;100019.25;;;-3.89;68.30
61484;BME280;47349;55.640;37.692;2023-02-16T13:47:29;100033.88;;;-4.02;67.41
61484;BME280;47349;55.640;37.692;2023-02-16T13:49:58;100028.00;;;-4.07;67.03
61484;BME280;47349;55.640;37.692;2023-02-16T13:52:32;100028.63;;;-4.20;67.74
61484;BME280;47349;55.640;37.692;2023-02-16T13:55:01;100035.69;;;-4.22;67.97
61484;BME280;47349;55.640;37.692;2023-02-16T14:02:54;100034.19;;;-4.08;68.90
61484;BME280;47349;55.640;37.692;2023-02-16T14:05:22;100035.09;;;-4.09;69.06
61484;BME280;47349;55.640;37.692;2023-02-16T14:08:07;100033.97;;;-4.04;69.95
61484;BME280;47349;55.640;37.692;2023-02-16T14:13:21;100038.19;;;-4.01;71.45
61484;BME280;47349;55.640;37.692;2023-02-16T14:15:51;100042.50;;;-4.00;71.00
61484;BME280;47349;55.640;37.692;2023-02-16T14:18:29;100041.09;;;-4.25;72.92
61484;BME280;47349;55.640;37.692;2023-02-16T14:20:59;100039.53;;;-4.29;73.83
61484;BME280;47349;55.640;37.692;2023-02-16T14:23:27;100041.56;;;-4.35;74.52
61484;BME280;47349;55.640;37.692;2023-02-16T14:26:04;100041.03;;;-4.42;75.39
61484;BME280;47349;55.640;37.692;2023-02-16T14:31:11;100045.19;;;-4.19;75.61
61484;BME280;47349;55.640;37.692;2023-02-16T14:33:42;100033.91;;;-4.21;75.53
61484;BME280;47349;55.640;37.692;2023-02-16T14:36:26;100043.00;;;-4.28;74.99
61484;BME280;47349;55.640;37.692;2023-02-16T14:38:54;100049.84;;;-4.26;75.17
61484;BME280;47349;55.640;37.692;2023-02-16T14:41:25;100042.91;;;-4.27;75.03
61484;BME280;47349;55.640;37.692;2023-02-16T14:59:39;100049.47;;;-4.54;74.65
61484;BME280;47349;55.640;37.692;2023-02-16T15:05:13;100055.59;;;-4.55;76.50
61484;BME280;47349;55.640;37.692;2023-02-16T15:07:42;100048.66;;;-4.56;78.15
61484;BME280;47349;55.640;37.692;2023-02-16T15:10:15;100054.97;;;-4.60;77.59
61484;BME280;47349;55.640;37.692;2023-02-16T15:13:01;100050.66;;;-4.61;76.74
61484;BME280;47349;55.640;37.692;2023-02-16T15:15:34;100047.06;;;-4.78;77.26
61484;BME280;47349;55.640;37.692;2023-02-16T15:18:12;100061.47;;;-4.88;77.33
61484;BME280;47349;55.640;37.692;2023-02-16T15:20:41;100056.66;;;-4.97;76.91
61484;BME280;47349;55.640;37.692;2023-02-16T15:23:21;100053.00;;;-4.93;76.52
61484;BME280;47349;55.640;37.692;2023-02-16T15:25:56;100050.38;;;-4.93;76.08
61484;BME280;47349;55.640;37.692;2023-02-16T15:28:25;100060.84;;;-4.93;76.65
61484;BME280;47349;55.640;37.692;2023-02-16T15:30:54;100056.78;;;-5.00;76.00
61484;BME280;47349;55.640;37.692;2023-02-16T15:35:51;100063.13;;;-5.06;75.94